Time;durP1;ratioP1;P1;durP2;ratioP2;P2;SDS_P1;SDS_P2;PMS_P1;PMS_P2;Temp;Humidity;BMP_temperature;BMP_pressure;BME280_temperature;BME280_humidity;BME280_pressure;Samples;Min_cycle;Max_cycle;Signal;HPM_P1;HPM_P2
2023/07/08 00:00:26;;;;;;;;;;;21.50;85.50;;;;;;5031151;28;19916;-52
2023/07/08 00:02:52;;;;;;;;;;;21.50;85.60;;;;;;5013135;28;19920;-53
2023/07/08 00:05:19;;;;;;;;;;;21.60;85.50;;;;;;5030924;28;20297;-53
2023/07/08 00:07:44;;;;;;;;;;;21.60;85.90;;;;;;5034712;28;19909;-53
2023/07/08 00:10:16;;;;;;;;;;;21.60;85.20;;;;;;5034962;28;20427;-55
2023/07/08 00:12:42;;;;;;;;;;;21.60;85.10;;;;;;5034792;28;19909;-50
2023/07/08 00:15:08;;;;;;;;;;;21.60;85.20;;;;;;5034789;28;19909;-54
2023/07/08 00:17:34;;;;;;;;;;;21.60;85.80;;;;;;5034849;28;19912;-55
2023/07/08 00:19:59;;;;;;;;;;;21.60;84.90;;;;;;5034810;28;20000;-55
2023/07/08 00:22:25;;;;;;;;;;;21.70;84.80;;;;;;5034550;28;20377;-55
2023/07/08 00:24:51;;;;;;;;;;;21.60;84.50;;;;;;5016874;28;20211;-53
2023/07/08 00:27:17;;;;;;;;;;;21.60;84.60;;;;;;5034792;28;19996;-55
2023/07/08 00:29:43;;;;;;;;;;;21.60;84.50;;;;;;5034675;28;19909;-54
2023/07/08 00:32:10;;;;;;;;;;;21.60;84.40;;;;;;5016590;28;19908;-52
2023/07/08 00:34:36;;;;;;;;;;;21.70;84.30;;;;;;5016592;28;19909;-51
2023/07/08 00:37:04;;;;;;;;;;;21.70;84.60;;;;;;5034460;28;20585;-49
2023/07/08 00:39:30;;;;;;;;;;;21.70;84.60;;;;;;5016511;28;19909;-50
2023/07/08 00:41:58;;;;;;;;;;;21.70;84.70;;;;;;5034317;28;19935;-53
2023/07/08 00:44:24;;;;;;;;;;;21.70;84.70;;;;;;5016609;28;20285;-50
2023/07/08 00:46:56;;;;;;;;;;;21.70;84.70;;;;;;5016505;28;19909;-53
2023/07/08 00:49:42;;;;;;;;;;;21.60;84.40;;;;;;5034313;28;20293;-52
2023/07/08 00:52:27;;;;;;;;;;;21.60;84.60;;;;;;5033898;28;19938;-53
2023/07/08 00:54:56;;;;;;;;;;;21.60;84.80;;;;;;5016235;28;19909;-52
2023/07/08 00:57:23;;;;;;;;;;;21.60;84.80;;;;;;5016461;28;20190;-55
2023/07/08 00:59:54;;;;;;;;;;;21.60;84.30;;;;;;5034431;28;19982;-53
2023/07/08 01:02:21;;;;;;;;;;;21.60;85.20;;;;;;5033781;28;19913;-55
2023/07/08 01:04:46;;;;;;;;;;;21.60;84.40;;;;;;5033897;28;19916;-52
2023/07/08 01:07:12;;;;;;;;;;;21.60;84.60;;;;;;5034020;28;19920;-54
2023/07/08 01:09:42;;;;;;;;;;;21.60;84.80;;;;;;5016203;28;19916;-52
2023/07/08 01:12:10;;;;;;;;;;;21.60;85.00;;;;;;5015913;28;20352;-53
2023/07/08 01:14:36;;;;;;;;;;;21.60;84.60;;;;;;5015852;28;20006;-52
2023/07/08 01:17:02;;;;;;;;;;;21.60;84.60;;;;;;5033082;28;20420;-50
2023/07/08 01:19:34;;;;;;;;;;;21.60;84.40;;;;;;5015465;28;19916;-52
2023/07/08 01:22:01;;;;;;;;;;;21.60;85.10;;;;;;5015963;28;20312;-53
2023/07/08 01:24:27;;;;;;;;;;;21.60;85.50;;;;;;5015670;28;19909;-55
2023/07/08 01:26:53;;;;;;;;;;;21.50;85.50;;;;;;5015905;28;20442;-50
2023/07/08 01:29:18;;;;;;;;;;;21.50;86.00;;;;;;5033559;28;20009;-52
2023/07/08 01:31:48;;;;;;;;;;;21.50;86.60;;;;;;5015570;28;20288;-53
2023/07/08 01:34:17;;;;;;;;;;;21.40;86.30;;;;;;5033247;28;20069;-55
2023/07/08 01:36:45;;;;;;;;;;;21.40;86.20;;;;;;5033332;28;19917;-55
2023/07/08 01:39:13;;;;;;;;;;;21.40;86.30;;;;;;5015624;28;19917;-54
2023/07/08 01:41:39;;;;;;;;;;;21.30;86.50;;;;;;5015362;28;19909;-51
2023/07/08 01:44:05;;;;;;;;;;;21.30;87.30;;;;;;5032951;28;19915;-53
2023/07/08 01:46:31;;;;;;;;;;;21.30;87.30;;;;;;5015719;28;20078;-51
2023/07/08 01:48:59;;;;;;;;;;;21.20;87.20;;;;;;5015529;28;19909;-54
2023/07/08 01:51:25;;;;;;;;;;;21.20;87.40;;;;;;5015269;28;19995;-49
2023/07/08 01:53:51;;;;;;;;;;;21.20;87.70;;;;;;5015201;28;20011;-55
2023/07/08 01:56:16;;;;;;;;;;;21.20;87.70;;;;;;5033679;28;20043;-52
2023/07/08 01:58:42;;;;;;;;;;;21.20;87.80;;;;;;5015123;28;20293;-53
2023/07/08 02:01:08;;;;;;;;;;;21.10;88.90;;;;;;5015432;28;19909;-54
2023/07/08 02:03:34;;;;;;;;;;;21.10;88.70;;;;;;5032857;28;19916;-55
2023/07/08 02:05:59;;;;;;;;;;;21.00;89.50;;;;;;5015514;28;19915;-51
2023/07/08 02:08:25;;;;;;;;;;;21.10;89.40;;;;;;5033128;28;19916;-54
2023/07/08 02:10:52;;;;;;;;;;;21.00;89.70;;;;;;5015233;28;19909;-54
2023/07/08 02:13:18;;;;;;;;;;;21.00;90.30;;;;;;5032532;28;19909;-56
2023/07/08 02:15:44;;;;;;;;;;;20.90;90.10;;;;;;5014964;28;19915;-55
2023/07/08 02:18:09;;;;;;;;;;;20.90;90.30;;;;;;5032813;28;20003;-52
2023/07/08 02:20:35;;;;;;;;;;;20.80;91.50;;;;;;5014847;28;19945;-52
2023/07/08 02:23:00;;;;;;;;;;;20.80;91.60;;;;;;5014633;28;19909;-54
2023/07/08 02:25:26;;;;;;;;;;;20.80;91.60;;;;;;5014621;28;19931;-54
2023/07/08 02:27:52;;;;;;;;;;;20.70;91.00;;;;;;5014652;28;19919;-54
2023/07/08 02:30:17;;;;;;;;;;;20.70;91.70;;;;;;5014390;28;20427;-54
2023/07/08 02:32:56;;;;;;;;;;;20.70;91.80;;;;;;5032499;28;19917;-54
2023/07/08 02:35:23;;;;;;;;;;;20.70;92.50;;;;;;5014371;28;19909;-54
2023/07/08 02:37:48;;;;;;;;;;;20.60;92.60;;;;;;5014569;28;19960;-53
2023/07/08 02:40:14;;;;;;;;;;;20.60;93.20;;;;;;5014409;28;19975;-53
2023/07/08 02:42:39;;;;;;;;;;;20.50;92.20;;;;;;5014261;28;19932;-55
2023/07/08 02:45:05;;;;;;;;;;;20.40;92.50;;;;;;5014210;28;20262;-56
2023/07/08 02:47:31;;;;;;;;;;;20.40;92.60;;;;;;5014465;28;19915;-52
2023/07/08 02:49:56;;;;;;;;;;;20.40;92.50;;;;;;4997907;28;19922;-52
2023/07/08 02:52:22;;;;;;;;;;;20.30;92.50;;;;;;5014086;28;19909;-54
2023/07/08 02:54:47;;;;;;;;;;;20.30;92.60;;;;;;5031758;28;19909;-53
2023/07/08 02:57:13;;;;;;;;;;;20.30;92.90;;;;;;5014109;28;19966;-56
2023/07/08 02:59:39;;;;;;;;;;;20.30;92.80;;;;;;5014285;28;19931;-55
2023/07/08 03:02:04;;;;;;;;;;;20.30;93.00;;;;;;5013929;28;19909;-55
2023/07/08 03:04:30;;;;;;;;;;;20.30;93.20;;;;;;5013968;28;19932;-52
2023/07/08 03:06:56;;;;;;;;;;;20.30;93.10;;;;;;5031875;28;19909;-53
2023/07/08 03:09:21;;;;;;;;;;;20.30;93.00;;;;;;5013967;28;19916;-53
2023/07/08 03:11:47;;;;;;;;;;;20.30;93.10;;;;;;5031522;28;19916;-55
2023/07/08 03:14:13;;;;;;;;;;;20.30;93.90;;;;;;5031419;28;19909;-56
2023/07/08 03:16:38;;;;;;;;;;;20.30;93.70;;;;;;5031574;28;19909;-53
2023/07/08 03:19:05;;;;;;;;;;;20.20;93.90;;;;;;5013632;28;20006;-55
2023/07/08 03:21:31;;;;;;;;;;;20.20;93.90;;;;;;5013846;28;19971;-52
2023/07/08 03:23:57;;;;;;;;;;;20.20;93.90;;;;;;5013433;28;20314;-55
2023/07/08 03:26:26;;;;;;;;;;;20.20;93.90;;;;;;5013686;28;19913;-54
2023/07/08 03:28:53;;;;;;;;;;;20.10;94.00;;;;;;5013670;28;19920;-52
2023/07/08 03:31:19;;;;;;;;;;;20.20;94.10;;;;;;5013549;28;19909;-53
2023/07/08 03:33:45;;;;;;;;;;;20.10;94.50;;;;;;5013378;28;19931;-52
2023/07/08 03:36:12;;;;;;;;;;;20.10;94.60;;;;;;5013588;28;19916;-55
2023/07/08 03:38:38;;;;;;;;;;;20.10;94.60;;;;;;5013374;28;19963;-54
2023/07/08 03:41:04;;;;;;;;;;;20.00;94.60;;;;;;5013101;28;19913;-54
2023/07/08 03:43:29;;;;;;;;;;;20.00;94.60;;;;;;5013077;28;20277;-55
2023/07/08 03:45:55;;;;;;;;;;;20.00;95.80;;;;;;5013568;28;19909;-51
2023/07/08 03:48:20;;;;;;;;;;;20.00;95.40;;;;;;5013502;28;19909;-52
2023/07/08 03:50:46;;;;;;;;;;;20.00;95.70;;;;;;5013421;28;19923;-54
2023/07/08 03:53:12;;;;;;;;;;;19.90;95.70;;;;;;5030919;28;19959;-56
2023/07/08 03:55:38;;;;;;;;;;;19.90;95.70;;;;;;5013214;28;19909;-53
2023/07/08 03:58:04;;;;;;;;;;;19.90;95.60;;;;;;5013407;28;19959;-54
2023/07/08 04:00:32;;;;;;;;;;;19.90;95.90;;;;;;5013447;28;19913;-54
2023/07/08 04:03:00;;;;;;;;;;;20.00;96.30;;;;;;5013200;28;19909;-51
2023/07/08 04:05:26;;;;;;;;;;;20.00;95.90;;;;;;5013145;28;19909;-55
2023/07/08 04:07:52;;;;;;;;;;;20.00;96.10;;;;;;5031081;28;19947;-53
2023/07/08 04:10:18;;;;;;;;;;;20.00;96.80;;;;;;5013349;28;19953;-51
2023/07/08 04:12:44;;;;;;;;;;;20.00;96.30;;;;;;5030717;28;19924;-52
2023/07/08 04:15:10;;;;;;;;;;;20.00;96.30;;;;;;5030798;28;19916;-55
2023/07/08 04:17:40;;;;;;;;;;;20.00;96.30;;;;;;5030791;28;20324;-52
2023/07/08 04:20:06;;;;;;;;;;;20.10;97.00;;;;;;5031040;28;19955;-53
2023/07/08 04:22:31;;;;;;;;;;;20.00;96.30;;;;;;5030728;28;19995;-54
2023/07/08 04:24:57;;;;;;;;;;;20.10;97.00;;;;;;5030907;28;19916;-51
2023/07/08 04:27:22;;;;;;;;;;;20.10;96.60;;;;;;5030963;28;19914;-54
2023/07/08 04:29:48;;;;;;;;;;;20.10;96.20;;;;;;5013359;28;19909;-51
2023/07/08 04:32:13;;;;;;;;;;;20.10;96.30;;;;;;5030742;28;19999;-52
2023/07/08 04:34:39;;;;;;;;;;;20.10;96.70;;;;;;5030994;28;19909;-50
2023/07/08 04:37:05;;;;;;;;;;;20.10;97.10;;;;;;5030920;28;19913;-51
2023/07/08 04:39:31;;;;;;;;;;;20.10;97.20;;;;;;5030978;28;19913;-50
2023/07/08 04:41:56;;;;;;;;;;;20.10;96.80;;;;;;5031025;28;19909;-51
2023/07/08 04:44:22;;;;;;;;;;;20.10;97.00;;;;;;5030498;28;19913;-55
2023/07/08 04:46:57;;;;;;;;;;;20.00;97.10;;;;;;5030878;28;19916;-50
2023/07/08 04:49:23;;;;;;;;;;;20.00;97.30;;;;;;5030789;28;19912;-54
2023/07/08 04:51:49;;;;;;;;;;;20.00;97.60;;;;;;5030859;28;19913;-53
2023/07/08 04:54:15;;;;;;;;;;;20.00;97.90;;;;;;5034064;28;19909;-55
2023/07/08 04:56:45;;;;;;;;;;;19.90;97.90;;;;;;5034260;28;19932;-55
2023/07/08 04:59:13;;;;;;;;;;;20.00;97.80;;;;;;5034144;28;20401;-51
2023/07/08 05:01:39;;;;;;;;;;;20.00;98.80;;;;;;5033885;28;19916;-54
2023/07/08 05:04:05;;;;;;;;;;;20.00;98.20;;;;;;5015917;28;19909;-54
2023/07/08 05:06:31;;;;;;;;;;;20.10;98.00;;;;;;5034067;28;19916;-54
2023/07/08 05:08:58;;;;;;;;;;;20.10;97.80;;;;;;5034040;28;19909;-55
2023/07/08 05:11:23;;;;;;;;;;;20.20;97.70;;;;;;5033765;28;20324;-54
2023/07/08 05:13:49;;;;;;;;;;;20.20;98.10;;;;;;5033649;28;19916;-52
2023/07/08 05:16:14;;;;;;;;;;;20.10;98.20;;;;;;5033915;28;19909;-55
2023/07/08 05:18:40;;;;;;;;;;;20.10;98.20;;;;;;5015910;28;19913;-54
2023/07/08 05:21:06;;;;;;;;;;;20.10;98.10;;;;;;5033754;28;19909;-53
2023/07/08 05:23:31;;;;;;;;;;;20.10;98.50;;;;;;5033281;28;20003;-51
2023/07/08 05:25:59;;;;;;;;;;;20.10;98.50;;;;;;5033598;28;19909;-52
2023/07/08 05:28:24;;;;;;;;;;;20.10;98.60;;;;;;5033586;28;19909;-54
2023/07/08 05:30:55;;;;;;;;;;;20.20;98.40;;;;;;5033682;28;20193;-54
2023/07/08 05:33:22;;;;;;;;;;;20.20;98.70;;;;;;5033055;28;19940;-52
2023/07/08 05:35:47;;;;;;;;;;;20.30;98.70;;;;;;5033394;28;19940;-55
2023/07/08 05:38:13;;;;;;;;;;;20.30;98.80;;;;;;5033595;28;19963;-53
2023/07/08 05:40:38;;;;;;;;;;;20.40;98.60;;;;;;5033332;28;19920;-51
2023/07/08 05:43:04;;;;;;;;;;;20.40;98.90;;;;;;5033122;28;19920;-53
2023/07/08 05:45:30;;;;;;;;;;;20.50;98.30;;;;;;5033187;28;19909;-54
2023/07/08 05:47:55;;;;;;;;;;;20.60;98.30;;;;;;5033272;28;20266;-55
2023/07/08 05:50:21;;;;;;;;;;;20.60;98.50;;;;;;5033203;28;19916;-55
2023/07/08 05:52:46;;;;;;;;;;;20.70;98.50;;;;;;5032950;28;19923;-52
2023/07/08 05:55:12;;;;;;;;;;;20.70;98.80;;;;;;5033001;28;19912;-55
2023/07/08 05:57:37;;;;;;;;;;;20.80;98.90;;;;;;5033007;28;20340;-55
2023/07/08 06:00:04;;;;;;;;;;;20.80;98.50;;;;;;5033066;28;19909;-53
2023/07/08 06:02:37;;;;;;;;;;;20.90;98.50;;;;;;5032743;28;20361;-54
2023/07/08 06:05:03;;;;;;;;;;;21.00;98.60;;;;;;5032065;28;19909;-51
2023/07/08 06:07:28;;;;;;;;;;;21.10;97.80;;;;;;5032884;28;19924;-51
2023/07/08 06:09:55;;;;;;;;;;;21.20;97.50;;;;;;5015227;28;19915;-55
2023/07/08 06:12:21;;;;;;;;;;;21.30;97.60;;;;;;5032538;28;19909;-54
2023/07/08 06:14:47;;;;;;;;;;;21.40;96.90;;;;;;5033063;28;20329;-55
2023/07/08 06:17:12;;;;;;;;;;;21.60;97.30;;;;;;5032612;28;19938;-55
2023/07/08 06:19:38;;;;;;;;;;;21.70;97.30;;;;;;5032709;28;19956;-53
2023/07/08 06:22:04;;;;;;;;;;;21.80;97.20;;;;;;5032403;28;19909;-52
2023/07/08 06:24:29;;;;;;;;;;;21.90;97.20;;;;;;5032405;28;19916;-53
2023/07/08 06:26:54;;;;;;;;;;;22.10;96.50;;;;;;5032525;28;19932;-56
2023/07/08 06:29:20;;;;;;;;;;;22.20;96.50;;;;;;5032929;28;19995;-55
2023/07/08 06:31:45;;;;;;;;;;;22.40;96.00;;;;;;5032277;28;20051;-55
2023/07/08 06:34:11;;;;;;;;;;;22.50;96.20;;;;;;5014510;28;19944;-52
2023/07/08 06:36:36;;;;;;;;;;;22.60;95.50;;;;;;5032369;28;19916;-55
2023/07/08 06:39:02;;;;;;;;;;;22.70;94.80;;;;;;5032600;28;20068;-54
2023/07/08 06:41:28;;;;;;;;;;;22.90;96.20;;;;;;5032269;28;19963;-54
2023/07/08 06:43:53;;;;;;;;;;;23.00;95.50;;;;;;5032018;28;20419;-55
2023/07/08 06:46:22;;;;;;;;;;;23.10;95.60;;;;;;5032192;28;19916;-54
2023/07/08 06:48:47;;;;;;;;;;;23.20;95.30;;;;;;5032119;28;19916;-56
2023/07/08 06:51:13;;;;;;;;;;;23.50;93.40;;;;;;5032256;28;20000;-54
2023/07/08 06:53:38;;;;;;;;;;;23.70;94.10;;;;;;5031579;28;19999;-52
2023/07/08 06:56:04;;;;;;;;;;;23.90;95.00;;;;;;5032088;28;19944;-52
2023/07/08 06:58:29;;;;;;;;;;;24.10;92.60;;;;;;5032005;28;19920;-56
2023/07/08 07:00:55;;;;;;;;;;;24.40;92.00;;;;;;5031924;28;19928;-55
2023/07/08 07:03:20;;;;;;;;;;;24.50;92.60;;;;;;5031644;28;19915;-56
2023/07/08 07:05:46;;;;;;;;;;;24.70;91.40;;;;;;5031850;28;19959;-53
2023/07/08 07:08:11;;;;;;;;;;;24.90;91.90;;;;;;5032082;28;19913;-55
2023/07/08 07:10:37;;;;;;;;;;;25.00;91.20;;;;;;5031923;28;19908;-53
2023/07/08 07:13:03;;;;;;;;;;;25.10;92.80;;;;;;5031724;28;19909;-53
2023/07/08 07:15:30;;;;;;;;;;;25.20;90.60;;;;;;5031544;28;20377;-56
2023/07/08 07:17:56;;;;;;;;;;;25.20;90.70;;;;;;5031629;28;19912;-52
2023/07/08 07:20:22;;;;;;;;;;;25.20;91.80;;;;;;5031688;28;19909;-54
2023/07/08 07:22:47;;;;;;;;;;;25.20;92.20;;;;;;5031423;28;19909;-54
2023/07/08 07:25:13;;;;;;;;;;;25.30;91.90;;;;;;5013854;28;20354;-53
2023/07/08 07:27:38;;;;;;;;;;;25.50;91.10;;;;;;5031519;28;20350;-52
2023/07/08 07:30:05;;;;;;;;;;;25.70;90.60;;;;;;5031362;28;20414;-55
2023/07/08 07:32:32;;;;;;;;;;;25.90;86.60;;;;;;5031049;28;20369;-53
2023/07/08 07:34:59;;;;;;;;;;;26.10;84.80;;;;;;5031178;28;20369;-54
2023/07/08 07:37:25;;;;;;;;;;;26.40;84.80;;;;;;5031364;28;19913;-54
2023/07/08 07:39:50;;;;;;;;;;;26.60;84.20;;;;;;5031439;28;20483;-52
2023/07/08 07:42:16;;;;;;;;;;;26.60;88.00;;;;;;5030964;28;19916;-54
2023/07/08 07:44:42;;;;;;;;;;;26.80;81.90;;;;;;5031004;28;19923;-54
2023/07/08 07:47:08;;;;;;;;;;;26.90;82.00;;;;;;5031229;28;19955;-54
2023/07/08 07:49:34;;;;;;;;;;;27.10;81.30;;;;;;5031155;28;19955;-54
2023/07/08 07:51:59;;;;;;;;;;;27.30;80.00;;;;;;5031056;28;19909;-54
2023/07/08 07:54:25;;;;;;;;;;;27.30;79.80;;;;;;5031072;28;19913;-51
2023/07/08 07:56:51;;;;;;;;;;;27.30;79.20;;;;;;5031101;28;19924;-54
2023/07/08 07:59:16;;;;;;;;;;;27.20;82.30;;;;;;5031037;28;19921;-52
2023/07/08 08:01:42;;;;;;;;;;;27.40;80.90;;;;;;5030915;28;19912;-52
2023/07/08 08:04:08;;;;;;;;;;;27.40;80.40;;;;;;5030905;28;19909;-49
2023/07/08 08:06:33;;;;;;;;;;;27.60;76.80;;;;;;5031040;28;19908;-54
2023/07/08 08:08:59;;;;;;;;;;;27.70;83.00;;;;;;5031144;28;19909;-48
2023/07/08 08:11:25;;;;;;;;;;;27.80;77.30;;;;;;5030837;28;19909;-54
2023/07/08 08:13:51;;;;;;;;;;;27.90;70.20;;;;;;5030636;28;20389;-51
2023/07/08 08:16:16;;;;;;;;;;;28.00;70.90;;;;;;5031226;28;19909;-52
2023/07/08 08:18:42;;;;;;;;;;;28.00;69.20;;;;;;5030831;28;19924;-53
2023/07/08 08:21:07;;;;;;;;;;;28.20;67.80;;;;;;5030999;28;19909;-51
2023/07/08 08:23:33;;;;;;;;;;;28.30;65.70;;;;;;5030412;28;19909;-49
2023/07/08 08:25:59;;;;;;;;;;;28.30;66.10;;;;;;5030941;28;20270;-50
2023/07/08 08:28:24;;;;;;;;;;;28.40;66.50;;;;;;5033779;28;19982;-50
2023/07/08 08:30:50;;;;;;;;;;;28.40;66.70;;;;;;5034743;28;19909;-50
2023/07/08 08:33:16;;;;;;;;;;;28.50;66.90;;;;;;5034398;28;19925;-50
2023/07/08 08:35:42;;;;;;;;;;;28.70;65.60;;;;;;5034538;28;19908;-53
2023/07/08 08:38:08;;;;;;;;;;;28.80;63.30;;;;;;5035087;28;19959;-53
2023/07/08 08:40:33;;;;;;;;;;;28.70;63.60;;;;;;5034448;28;20349;-50
2023/07/08 08:43:04;;;;;;;;;;;28.80;63.20;;;;;;5034413;28;19909;-48
2023/07/08 08:45:33;;;;;;;;;;;28.80;63.40;;;;;;5034369;28;20320;-53
2023/07/08 08:48:00;;;;;;;;;;;28.90;64.40;;;;;;5034394;28;19956;-55
2023/07/08 08:50:32;;;;;;;;;;;29.00;63.70;;;;;;5034714;28;20421;-51
2023/07/08 08:53:00;;;;;;;;;;;29.10;64.10;;;;;;5034076;28;20393;-53
2023/07/08 08:55:26;;;;;;;;;;;29.20;64.50;;;;;;5016321;28;20416;-53
2023/07/08 08:57:57;;;;;;;;;;;29.20;64.90;;;;;;5034125;28;19916;-53
2023/07/08 09:00:25;;;;;;;;;;;29.30;63.60;;;;;;5034249;28;19919;-51
2023/07/08 09:03:07;;;;;;;;;;;29.40;63.80;;;;;;5033857;28;19909;-51
2023/07/08 09:05:33;;;;;;;;;;;29.50;64.40;;;;;;5034027;28;19944;-51
2023/07/08 09:08:05;;;;;;;;;;;29.40;63.40;;;;;;5034011;28;20341;-51
2023/07/08 09:10:30;;;;;;;;;;;29.30;63.20;;;;;;5034034;28;19948;-52
2023/07/08 09:12:57;;;;;;;;;;;29.20;64.20;;;;;;5033435;28;19960;-49
2023/07/08 09:15:25;;;;;;;;;;;29.20;65.20;;;;;;5033719;28;20492;-51
2023/07/08 09:17:53;;;;;;;;;;;29.20;66.30;;;;;;5033667;28;19920;-48
2023/07/08 09:20:24;;;;;;;;;;;29.30;63.90;;;;;;5033811;28;19939;-53
2023/07/08 09:23:03;;;;;;;;;;;29.40;64.50;;;;;;5033479;28;19909;-49
2023/07/08 09:25:37;;;;;;;;;;;29.50;63.20;;;;;;5033600;28;20003;-49
2023/07/08 09:28:02;;;;;;;;;;;29.50;65.70;;;;;;5033621;28;19913;-48
2023/07/08 09:30:30;;;;;;;;;;;29.70;62.60;;;;;;5033974;28;19932;-50
2023/07/08 09:32:56;;;;;;;;;;;29.60;63.40;;;;;;5033303;28;19912;-49
2023/07/08 09:35:27;;;;;;;;;;;29.60;63.50;;;;;;5033602;28;19913;-52
2023/07/08 09:37:53;;;;;;;;;;;29.70;62.60;;;;;;5033150;28;19916;-48
2023/07/08 09:40:23;;;;;;;;;;;29.70;62.30;;;;;;5032681;28;19916;-52
2023/07/08 09:42:54;;;;;;;;;;;29.80;61.70;;;;;;5033234;28;19915;-53
2023/07/08 09:45:21;;;;;;;;;;;30.00;62.30;;;;;;5033406;28;19909;-52
2023/07/08 09:47:51;;;;;;;;;;;30.10;62.30;;;;;;5033687;28;19909;-53
2023/07/08 09:50:17;;;;;;;;;;;30.10;62.10;;;;;;5033764;28;19909;-50
2023/07/08 09:52:43;;;;;;;;;;;30.10;61.20;;;;;;5033140;28;19909;-51
2023/07/08 09:55:11;;;;;;;;;;;30.20;61.10;;;;;;5033116;28;20404;-50
2023/07/08 09:57:37;;;;;;;;;;;30.20;60.30;;;;;;5033100;28;19913;-49
2023/07/08 10:00:07;;;;;;;;;;;30.20;60.40;;;;;;5033034;28;19912;-54
2023/07/08 10:02:49;;;;;;;;;;;30.30;60.30;;;;;;5032766;28;19976;-49
2023/07/08 10:05:33;;;;;;;;;;;30.30;61.40;;;;;;5032892;28;19909;-49
2023/07/08 10:08:00;;;;;;;;;;;30.40;60.10;;;;;;5033013;28;20328;-49
2023/07/08 10:10:31;;;;;;;;;;;30.40;60.70;;;;;;5032771;28;19955;-51
2023/07/08 10:13:05;;;;;;;;;;;30.50;61.00;;;;;;5032763;28;20300;-52
2023/07/08 10:15:36;;;;;;;;;;;30.50;62.00;;;;;;5032643;28;19954;-53
2023/07/08 10:18:02;;;;;;;;;;;30.70;60.50;;;;;;5014756;28;19917;-53
2023/07/08 10:20:38;;;;;;;;;;;30.70;60.20;;;;;;5032836;28;20270;-53
2023/07/08 10:23:04;;;;;;;;;;;30.80;61.30;;;;;;5032402;28;20034;-54
2023/07/08 10:25:34;;;;;;;;;;;30.70;60.40;;;;;;5032370;28;20039;-50
2023/07/08 10:28:00;;;;;;;;;;;30.80;61.30;;;;;;5032629;28;19909;-53
2023/07/08 10:30:29;;;;;;;;;;;30.70;62.00;;;;;;5032820;28;19909;-50
2023/07/08 10:32:59;;;;;;;;;;;30.80;60.70;;;;;;5014480;28;19909;-51
2023/07/08 10:35:30;;;;;;;;;;;30.90;62.70;;;;;;5032209;28;19909;-51
2023/07/08 10:38:16;;;;;;;;;;;31.10;61.80;;;;;;5032332;28;19913;-51
2023/07/08 10:40:49;;;;;;;;;;;31.20;61.50;;;;;;5032278;28;20159;-52
2023/07/08 10:43:24;;;;;;;;;;;31.40;60.80;;;;;;5032381;28;20345;-50
2023/07/08 10:45:53;;;;;;;;;;;31.50;59.70;;;;;;5032013;28;20008;-52
2023/07/08 10:48:28;;;;;;;;;;;31.60;60.40;;;;;;5032340;28;19909;-53
2023/07/08 10:50:56;;;;;;;;;;;31.60;60.60;;;;;;5031782;28;19915;-53
2023/07/08 10:53:25;;;;;;;;;;;31.70;59.70;;;;;;5014078;28;19909;-53
2023/07/08 10:55:54;;;;;;;;;;;31.70;58.70;;;;;;5031959;28;19909;-51
2023/07/08 10:58:19;;;;;;;;;;;31.70;58.60;;;;;;5031879;28;19913;-54
2023/07/08 11:01:03;;;;;;;;;;;31.70;58.90;;;;;;5032126;28;19971;-54
2023/07/08 11:03:31;;;;;;;;;;;31.70;59.30;;;;;;5031492;28;19909;-52
2023/07/08 11:06:12;;;;;;;;;;;31.60;59.60;;;;;;5031833;28;19956;-53
2023/07/08 11:08:41;;;;;;;;;;;31.70;58.60;;;;;;5032185;28;19909;-50
2023/07/08 11:11:23;;;;;;;;;;;31.60;59.80;;;;;;5031763;28;20002;-51
2023/07/08 11:13:54;;;;;;;;;;;31.80;60.00;;;;;;5031398;28;20251;-52
2023/07/08 11:16:24;;;;;;;;;;;31.80;59.90;;;;;;5031714;28;19972;-51
2023/07/08 11:19:03;;;;;;;;;;;31.90;57.40;;;;;;5031501;28;19975;-51
2023/07/08 11:21:37;;;;;;;;;;;31.90;57.30;;;;;;5031518;28;20265;-49
2023/07/08 11:24:23;;;;;;;;;;;32.00;58.00;;;;;;5031191;28;19913;-49
2023/07/08 11:26:48;;;;;;;;;;;32.00;57.70;;;;;;5014171;28;20400;-53
2023/07/08 11:29:17;;;;;;;;;;;32.10;58.70;;;;;;5031488;28;19952;-50
2023/07/08 11:31:43;;;;;;;;;;;32.10;58.50;;;;;;5031185;28;19924;-54
2023/07/08 11:34:10;;;;;;;;;;;32.20;59.00;;;;;;5031196;28;20400;-53
2023/07/08 11:36:37;;;;;;;;;;;32.40;58.00;;;;;;5031444;28;20348;-52
2023/07/08 11:39:19;;;;;;;;;;;32.40;58.60;;;;;;5031206;28;19925;-54
2023/07/08 11:41:45;;;;;;;;;;;32.30;59.10;;;;;;5031233;28;19963;-52
2023/07/08 11:44:11;;;;;;;;;;;32.40;59.60;;;;;;5030927;28;19944;-54
2023/07/08 11:46:52;;;;;;;;;;;32.50;58.30;;;;;;5031271;28;19963;-52
2023/07/08 11:49:18;;;;;;;;;;;32.50;57.70;;;;;;5031293;28;19909;-51
2023/07/08 11:51:45;;;;;;;;;;;32.50;57.60;;;;;;5031181;28;19915;-53
2023/07/08 11:54:13;;;;;;;;;;;32.40;57.20;;;;;;5030880;28;19909;-51
2023/07/08 11:56:56;;;;;;;;;;;32.40;58.00;;;;;;5031250;28;19915;-53
2023/07/08 11:59:23;;;;;;;;;;;32.50;57.90;;;;;;5031206;28;19917;-51
2023/07/08 12:01:48;;;;;;;;;;;32.50;56.50;;;;;;5031539;28;19909;-54
2023/07/08 12:04:24;;;;;;;;;;;32.70;56.70;;;;;;5035416;28;19936;-51
2023/07/08 12:07:02;;;;;;;;;;;32.70;57.10;;;;;;5035274;28;20395;-54
2023/07/08 12:09:30;;;;;;;;;;;32.70;57.80;;;;;;5035591;28;20276;-52
2023/07/08 12:11:58;;;;;;;;;;;32.70;57.30;;;;;;5035103;28;20384;-54
2023/07/08 12:14:25;;;;;;;;;;;32.80;56.20;;;;;;5034869;28;20354;-55
2023/07/08 12:16:51;;;;;;;;;;;32.90;56.50;;;;;;5017322;28;19916;-54
2023/07/08 12:19:17;;;;;;;;;;;33.00;56.80;;;;;;5035248;28;19913;-54
2023/07/08 12:21:43;;;;;;;;;;;33.10;56.50;;;;;;5034845;28;19913;-49
2023/07/08 12:24:12;;;;;;;;;;;33.10;56.70;;;;;;5034788;28;20276;-50
2023/07/08 12:26:39;;;;;;;;;;;33.10;57.30;;;;;;5035206;28;19955;-53
2023/07/08 12:29:05;;;;;;;;;;;33.10;57.70;;;;;;5035175;28;19909;-51
2023/07/08 12:31:31;;;;;;;;;;;33.10;57.60;;;;;;5034904;28;19916;-53
2023/07/08 12:33:57;;;;;;;;;;;33.20;55.80;;;;;;5034609;28;20342;-54
2023/07/08 12:36:25;;;;;;;;;;;33.30;54.80;;;;;;5034771;28;20000;-51
2023/07/08 12:38:52;;;;;;;;;;;33.50;54.30;;;;;;5034616;28;20333;-52
2023/07/08 12:41:17;;;;;;;;;;;33.50;55.80;;;;;;5034520;28;19909;-52
2023/07/08 12:43:43;;;;;;;;;;;33.40;55.40;;;;;;5034150;28;20004;-52
2023/07/08 12:46:10;;;;;;;;;;;33.40;54.80;;;;;;5034540;28;19909;-51
2023/07/08 12:48:36;;;;;;;;;;;33.40;54.70;;;;;;5034355;28;20388;-52
2023/07/08 12:51:03;;;;;;;;;;;33.40;55.50;;;;;;5034304;28;20396;-51
2023/07/08 12:53:28;;;;;;;;;;;33.30;55.90;;;;;;5033874;28;19909;-51
2023/07/08 12:55:55;;;;;;;;;;;33.30;56.30;;;;;;5034258;28;20380;-52
2023/07/08 12:58:28;;;;;;;;;;;33.30;56.20;;;;;;5034248;28;19952;-52
2023/07/08 13:00:54;;;;;;;;;;;33.40;54.90;;;;;;5034250;28;19909;-52
2023/07/08 13:03:22;;;;;;;;;;;33.50;55.40;;;;;;5033871;28;19916;-54
2023/07/08 13:05:49;;;;;;;;;;;33.40;54.70;;;;;;5033893;28;19955;-52
2023/07/08 13:08:15;;;;;;;;;;;33.50;54.50;;;;;;5034058;28;19909;-50
2023/07/08 13:10:42;;;;;;;;;;;33.60;54.80;;;;;;5034215;28;19932;-52
2023/07/08 13:13:08;;;;;;;;;;;33.60;54.20;;;;;;5033610;28;19916;-51
2023/07/08 13:15:38;;;;;;;;;;;33.60;55.80;;;;;;5033794;28;19913;-54
2023/07/08 13:18:03;;;;;;;;;;;33.70;53.70;;;;;;5033728;28;19917;-53
2023/07/08 13:20:30;;;;;;;;;;;33.70;52.90;;;;;;5033798;28;19917;-51
2023/07/08 13:22:59;;;;;;;;;;;33.70;53.80;;;;;;5015857;28;19909;-49
2023/07/08 13:25:30;;;;;;;;;;;33.90;53.20;;;;;;5033491;28;19975;-52
2023/07/08 13:28:00;;;;;;;;;;;34.00;53.50;;;;;;5033721;28;19999;-52
2023/07/08 13:30:27;;;;;;;;;;;34.00;52.90;;;;;;5033643;28;20274;-55
2023/07/08 13:32:57;;;;;;;;;;;33.90;53.90;;;;;;5033334;28;19919;-51
2023/07/08 13:35:27;;;;;;;;;;;33.90;53.10;;;;;;5015615;28;19916;-54
2023/07/08 13:37:54;;;;;;;;;;;33.80;54.20;;;;;;5033563;28;19917;-54
2023/07/08 13:40:20;;;;;;;;;;;33.80;52.50;;;;;;5015826;28;19913;-53
2023/07/08 13:42:52;;;;;;;;;;;33.70;53.30;;;;;;5033134;28;19964;-55
2023/07/08 13:45:22;;;;;;;;;;;33.70;54.70;;;;;;5033202;28;19909;-55
2023/07/08 13:47:57;;;;;;;;;;;33.80;53.80;;;;;;5015584;28;19952;-55
2023/07/08 13:50:25;;;;;;;;;;;33.80;53.60;;;;;;5033373;28;19932;-50
2023/07/08 13:52:54;;;;;;;;;;;33.90;53.70;;;;;;5033005;28;19931;-51
2023/07/08 13:55:21;;;;;;;;;;;33.90;53.10;;;;;;5032984;28;19916;-53
2023/07/08 13:57:55;;;;;;;;;;;33.90;52.70;;;;;;5033309;28;19991;-52
2023/07/08 14:00:20;;;;;;;;;;;34.00;52.90;;;;;;5033147;28;19909;-51
2023/07/08 14:02:46;;;;;;;;;;;33.80;53.40;;;;;;5032754;28;20258;-54
2023/07/08 14:05:12;;;;;;;;;;;33.80;54.20;;;;;;5032766;28;20338;-51
2023/07/08 14:07:38;;;;;;;;;;;34.00;54.00;;;;;;5032946;28;19908;-53
2023/07/08 14:10:09;;;;;;;;;;;33.90;53.90;;;;;;4999041;28;20379;-53
2023/07/08 14:12:34;;;;;;;;;;;34.00;53.30;;;;;;5032522;28;20336;-53
2023/07/08 14:15:00;;;;;;;;;;;34.10;53.20;;;;;;5032684;28;19913;-53
2023/07/08 14:17:26;;;;;;;;;;;34.00;54.40;;;;;;5032818;28;19913;-51